sensor_id;sensor_type;location;lat;lon;timestamp;P1;durP1;ratioP1;P2;durP2;ratioP2
72895;SDS011;61036;53.224;6.554;2024-01-15T00:02:16;11.87;;;2.30;;
72895;SDS011;61036;53.224;6.554;2024-01-15T00:04:42;10.87;;;2.97;;
72895;SDS011;61036;53.224;6.554;2024-01-15T00:07:07;9.33;;;2.20;;
72895;SDS011;61036;53.224;6.554;2024-01-15T00:09:34;8.13;;;1.90;;
72895;SDS011;61036;53.224;6.554;2024-01-15T00:12:00;6.67;;;1.40;;
72895;SDS011;61036;53.224;6.554;2024-01-15T00:14:27;7.70;;;1.57;;
72895;SDS011;61036;53.224;6.554;2024-01-15T00:16:53;6.30;;;1.50;;
72895;SDS011;61036;53.224;6.554;2024-01-15T00:19:23;4.33;;;1.00;;
72895;SDS011;61036;53.224;6.554;2024-01-15T00:21:49;3.80;;;0.80;;
72895;SDS011;61036;53.224;6.554;2024-01-15T00:24:15;4.63;;;1.13;;
72895;SDS011;61036;53.224;6.554;2024-01-15T00:26:41;3.87;;;1.10;;
72895;SDS011;61036;53.224;6.554;2024-01-15T00:29:07;3.77;;;1.13;;
72895;SDS011;61036;53.224;6.554;2024-01-15T00:31:33;5.80;;;1.17;;
72895;SDS011;61036;53.224;6.554;2024-01-15T00:33:59;3.93;;;1.07;;
72895;SDS011;61036;53.224;6.554;2024-01-15T00:36:24;9.40;;;1.83;;
72895;SDS011;61036;53.224;6.554;2024-01-15T00:38:50;5.23;;;1.40;;
72895;SDS011;61036;53.224;6.554;2024-01-15T00:41:16;10.90;;;1.80;;
72895;SDS011;61036;53.224;6.554;2024-01-15T00:43:43;11.60;;;2.10;;
72895;SDS011;61036;53.224;6.554;2024-01-15T00:46:10;10.40;;;1.83;;
72895;SDS011;61036;53.224;6.554;2024-01-15T00:48:36;8.40;;;1.57;;
72895;SDS011;61036;53.224;6.554;2024-01-15T00:51:01;10.60;;;2.13;;
72895;SDS011;61036;53.224;6.554;2024-01-15T00:53:27;9.53;;;2.60;;
72895;SDS011;61036;53.224;6.554;2024-01-15T00:55:52;9.93;;;1.90;;
72895;SDS011;61036;53.224;6.554;2024-01-15T00:58:18;9.73;;;2.00;;
72895;SDS011;61036;53.224;6.554;2024-01-15T01:00:44;11.23;;;2.20;;
72895;SDS011;61036;53.224;6.554;2024-01-15T01:03:09;14.00;;;2.50;;
72895;SDS011;61036;53.224;6.554;2024-01-15T01:05:35;11.97;;;2.67;;
72895;SDS011;61036;53.224;6.554;2024-01-15T01:08:00;10.87;;;1.77;;
72895;SDS011;61036;53.224;6.554;2024-01-15T01:10:26;10.23;;;2.27;;
72895;SDS011;61036;53.224;6.554;2024-01-15T01:12:52;14.17;;;2.63;;
72895;SDS011;61036;53.224;6.554;2024-01-15T01:15:18;10.57;;;2.37;;
72895;SDS011;61036;53.224;6.554;2024-01-15T01:17:43;12.87;;;2.80;;
72895;SDS011;61036;53.224;6.554;2024-01-15T01:20:09;14.43;;;3.10;;
72895;SDS011;61036;53.224;6.554;2024-01-15T01:22:35;12.53;;;2.50;;
72895;SDS011;61036;53.224;6.554;2024-01-15T01:25:01;14.53;;;3.33;;
72895;SDS011;61036;53.224;6.554;2024-01-15T01:27:27;15.93;;;3.03;;
72895;SDS011;61036;53.224;6.554;2024-01-15T01:29:53;13.33;;;2.70;;
72895;SDS011;61036;53.224;6.554;2024-01-15T01:32:18;13.17;;;2.40;;
72895;SDS011;61036;53.224;6.554;2024-01-15T01:34:44;12.43;;;2.47;;
72895;SDS011;61036;53.224;6.554;2024-01-15T01:37:12;11.10;;;2.40;;
72895;SDS011;61036;53.224;6.554;2024-01-15T01:39:41;16.07;;;2.80;;
72895;SDS011;61036;53.224;6.554;2024-01-15T01:42:07;12.57;;;1.67;;
72895;SDS011;61036;53.224;6.554;2024-01-15T01:44:33;15.30;;;2.90;;
72895;SDS011;61036;53.224;6.554;2024-01-15T01:46:58;11.40;;;1.83;;
72895;SDS011;61036;53.224;6.554;2024-01-15T01:49:25;16.67;;;2.53;;
72895;SDS011;61036;53.224;6.554;2024-01-15T01:51:52;9.03;;;1.80;;
72895;SDS011;61036;53.224;6.554;2024-01-15T01:54:18;16.63;;;3.07;;
72895;SDS011;61036;53.224;6.554;2024-01-15T01:56:45;9.73;;;2.10;;
72895;SDS011;61036;53.224;6.554;2024-01-15T01:59:12;12.70;;;2.53;;
72895;SDS011;61036;53.224;6.554;2024-01-15T02:01:38;17.53;;;2.90;;
72895;SDS011;61036;53.224;6.554;2024-01-15T02:04:04;8.77;;;2.10;;
72895;SDS011;61036;53.224;6.554;2024-01-15T02:06:30;9.27;;;1.80;;
72895;SDS011;61036;53.224;6.554;2024-01-15T02:08:55;11.03;;;2.60;;
72895;SDS011;61036;53.224;6.554;2024-01-15T02:11:21;12.50;;;2.37;;
72895;SDS011;61036;53.224;6.554;2024-01-15T02:13:47;12.37;;;2.60;;
72895;SDS011;61036;53.224;6.554;2024-01-15T02:16:13;14.83;;;3.07;;
72895;SDS011;61036;53.224;6.554;2024-01-15T02:18:41;13.20;;;2.33;;
72895;SDS011;61036;53.224;6.554;2024-01-15T02:21:08;17.33;;;2.77;;
72895;SDS011;61036;53.224;6.554;2024-01-15T02:23:34;12.43;;;2.40;;
72895;SDS011;61036;53.224;6.554;2024-01-15T02:25:59;16.90;;;2.63;;
72895;SDS011;61036;53.224;6.554;2024-01-15T02:28:26;8.57;;;2.50;;
72895;SDS011;61036;53.224;6.554;2024-01-15T02:30:52;14.87;;;2.80;;
72895;SDS011;61036;53.224;6.554;2024-01-15T02:33:17;16.83;;;2.67;;
72895;SDS011;61036;53.224;6.554;2024-01-15T02:35:43;11.53;;;2.87;;
72895;SDS011;61036;53.224;6.554;2024-01-15T02:38:09;13.70;;;2.33;;
72895;SDS011;61036;53.224;6.554;2024-01-15T02:40:34;16.43;;;3.30;;
72895;SDS011;61036;53.224;6.554;2024-01-15T02:43:00;11.93;;;2.50;;
72895;SDS011;61036;53.224;6.554;2024-01-15T02:45:26;9.97;;;2.10;;
72895;SDS011;61036;53.224;6.554;2024-01-15T02:47:52;12.23;;;2.50;;
72895;SDS011;61036;53.224;6.554;2024-01-15T02:50:18;11.13;;;2.07;;
72895;SDS011;61036;53.224;6.554;2024-01-15T02:52:43;9.03;;;2.20;;
72895;SDS011;61036;53.224;6.554;2024-01-15T02:55:09;20.07;;;2.67;;
72895;SDS011;61036;53.224;6.554;2024-01-15T02:57:35;13.13;;;2.03;;
72895;SDS011;61036;53.224;6.554;2024-01-15T03:00:00;7.13;;;1.80;;
72895;SDS011;61036;53.224;6.554;2024-01-15T03:02:26;7.53;;;1.80;;
72895;SDS011;61036;53.224;6.554;2024-01-15T03:04:52;6.13;;;1.60;;
72895;SDS011;61036;53.224;6.554;2024-01-15T03:07:17;8.30;;;1.80;;
72895;SDS011;61036;53.224;6.554;2024-01-15T03:09:43;10.00;;;1.90;;
72895;SDS011;61036;53.224;6.554;2024-01-15T03:12:09;7.27;;;1.37;;
72895;SDS011;61036;53.224;6.554;2024-01-15T03:14:35;8.60;;;1.80;;
72895;SDS011;61036;53.224;6.554;2024-01-15T03:17:01;12.33;;;1.80;;
72895;SDS011;61036;53.224;6.554;2024-01-15T03:19:26;7.80;;;2.07;;
72895;SDS011;61036;53.224;6.554;2024-01-15T03:21:52;9.53;;;1.83;;
72895;SDS011;61036;53.224;6.554;2024-01-15T03:24:18;11.70;;;2.23;;
72895;SDS011;61036;53.224;6.554;2024-01-15T03:26:44;7.53;;;1.93;;
72895;SDS011;61036;53.224;6.554;2024-01-15T03:29:09;9.97;;;2.07;;
72895;SDS011;61036;53.224;6.554;2024-01-15T03:31:35;20.40;;;3.00;;
72895;SDS011;61036;53.224;6.554;2024-01-15T03:34:01;16.97;;;2.97;;
72895;SDS011;61036;53.224;6.554;2024-01-15T03:36:26;12.73;;;2.77;;
72895;SDS011;61036;53.224;6.554;2024-01-15T03:38:52;15.10;;;2.23;;
72895;SDS011;61036;53.224;6.554;2024-01-15T03:41:17;16.10;;;3.77;;
72895;SDS011;61036;53.224;6.554;2024-01-15T03:43:43;17.03;;;3.87;;
72895;SDS011;61036;53.224;6.554;2024-01-15T03:46:09;14.63;;;2.83;;
72895;SDS011;61036;53.224;6.554;2024-01-15T03:48:34;17.63;;;3.77;;
72895;SDS011;61036;53.224;6.554;2024-01-15T03:51:00;13.80;;;2.70;;
72895;SDS011;61036;53.224;6.554;2024-01-15T03:53:25;14.97;;;2.97;;
72895;SDS011;61036;53.224;6.554;2024-01-15T03:55:51;13.20;;;2.10;;
72895;SDS011;61036;53.224;6.554;2024-01-15T03:58:17;16.90;;;3.03;;
72895;SDS011;61036;53.224;6.554;2024-01-15T04:00:43;9.70;;;2.77;;
72895;SDS011;61036;53.224;6.554;2024-01-15T04:03:08;11.77;;;2.97;;
72895;SDS011;61036;53.224;6.554;2024-01-15T04:05:34;11.67;;;3.03;;
72895;SDS011;61036;53.224;6.554;2024-01-15T04:08:00;12.50;;;2.63;;
72895;SDS011;61036;53.224;6.554;2024-01-15T04:10:26;15.57;;;2.00;;
72895;SDS011;61036;53.224;6.554;2024-01-15T04:12:52;11.80;;;2.40;;
72895;SDS011;61036;53.224;6.554;2024-01-15T04:15:17;10.20;;;1.83;;
72895;SDS011;61036;53.224;6.554;2024-01-15T04:17:43;7.37;;;2.17;;
72895;SDS011;61036;53.224;6.554;2024-01-15T04:20:08;10.83;;;2.40;;
72895;SDS011;61036;53.224;6.554;2024-01-15T04:22:35;9.00;;;2.10;;
72895;SDS011;61036;53.224;6.554;2024-01-15T04:25:01;10.13;;;1.97;;
72895;SDS011;61036;53.224;6.554;2024-01-15T04:27:27;8.80;;;1.87;;
72895;SDS011;61036;53.224;6.554;2024-01-15T04:29:52;12.23;;;2.17;;
72895;SDS011;61036;53.224;6.554;2024-01-15T04:32:18;10.00;;;1.80;;
72895;SDS011;61036;53.224;6.554;2024-01-15T04:34:44;10.67;;;1.83;;
72895;SDS011;61036;53.224;6.554;2024-01-15T04:37:10;9.57;;;1.93;;
72895;SDS011;61036;53.224;6.554;2024-01-15T04:39:36;8.13;;;1.57;;
72895;SDS011;61036;53.224;6.554;2024-01-15T04:42:02;4.43;;;1.37;;
72895;SDS011;61036;53.224;6.554;2024-01-15T04:44:28;6.03;;;1.60;;
72895;SDS011;61036;53.224;6.554;2024-01-15T04:46:53;8.83;;;1.90;;
72895;SDS011;61036;53.224;6.554;2024-01-15T05:13:26;9.30;;;1.67;;
72895;SDS011;61036;53.224;6.554;2024-01-15T05:15:51;9.87;;;2.23;;
72895;SDS011;61036;53.224;6.554;2024-01-15T05:18:17;10.90;;;1.77;;
72895;SDS011;61036;53.224;6.554;2024-01-15T05:20:42;9.43;;;2.30;;
72895;SDS011;61036;53.224;6.554;2024-01-15T05:23:08;8.07;;;1.67;;
72895;SDS011;61036;53.224;6.554;2024-01-15T05:25:33;7.97;;;1.70;;
72895;SDS011;61036;53.224;6.554;2024-01-15T05:27:59;5.20;;;1.60;;
72895;SDS011;61036;53.224;6.554;2024-01-15T05:30:25;8.53;;;1.53;;
72895;SDS011;61036;53.224;6.554;2024-01-15T05:32:50;12.37;;;1.70;;
72895;SDS011;61036;53.224;6.554;2024-01-15T05:35:16;8.20;;;1.80;;
72895;SDS011;61036;53.224;6.554;2024-01-15T05:37:42;9.87;;;2.47;;
72895;SDS011;61036;53.224;6.554;2024-01-15T05:40:10;9.13;;;2.00;;
72895;SDS011;61036;53.224;6.554;2024-01-15T05:42:37;10.33;;;1.63;;
72895;SDS011;61036;53.224;6.554;2024-01-15T05:45:03;8.43;;;1.57;;
72895;SDS011;61036;53.224;6.554;2024-01-15T05:47:30;13.80;;;2.37;;
72895;SDS011;61036;53.224;6.554;2024-01-15T05:49:56;9.50;;;2.00;;
72895;SDS011;61036;53.224;6.554;2024-01-15T05:52:22;8.03;;;2.27;;
72895;SDS011;61036;53.224;6.554;2024-01-15T05:54:49;6.80;;;2.23;;
72895;SDS011;61036;53.224;6.554;2024-01-15T05:57:15;11.37;;;2.30;;
72895;SDS011;61036;53.224;6.554;2024-01-15T05:59:40;9.37;;;2.23;;
72895;SDS011;61036;53.224;6.554;2024-01-15T06:02:06;13.00;;;2.63;;
72895;SDS011;61036;53.224;6.554;2024-01-15T06:04:31;12.47;;;2.63;;
72895;SDS011;61036;53.224;6.554;2024-01-15T06:06:57;13.10;;;2.70;;
72895;SDS011;61036;53.224;6.554;2024-01-15T06:09:22;12.53;;;2.40;;
72895;SDS011;61036;53.224;6.554;2024-01-15T06:11:48;9.83;;;2.87;;
72895;SDS011;61036;53.224;6.554;2024-01-15T06:14:13;12.20;;;2.47;;
72895;SDS011;61036;53.224;6.554;2024-01-15T06:16:39;12.53;;;3.03;;
72895;SDS011;61036;53.224;6.554;2024-01-15T06:19:04;13.07;;;2.40;;
72895;SDS011;61036;53.224;6.554;2024-01-15T06:21:30;12.60;;;2.73;;
72895;SDS011;61036;53.224;6.554;2024-01-15T06:23:55;13.63;;;2.93;;
72895;SDS011;61036;53.224;6.554;2024-01-15T06:26:23;14.83;;;3.00;;
72895;SDS011;61036;53.224;6.554;2024-01-15T06:28:49;11.23;;;2.23;;
72895;SDS011;61036;53.224;6.554;2024-01-15T06:31:15;11.87;;;3.23;;
72895;SDS011;61036;53.224;6.554;2024-01-15T06:33:41;12.73;;;2.83;;
72895;SDS011;61036;53.224;6.554;2024-01-15T06:36:06;16.87;;;3.23;;
72895;SDS011;61036;53.224;6.554;2024-01-15T06:38:32;8.57;;;2.50;;
72895;SDS011;61036;53.224;6.554;2024-01-15T06:40:57;12.20;;;3.10;;
72895;SDS011;61036;53.224;6.554;2024-01-15T06:43:23;16.60;;;3.53;;
72895;SDS011;61036;53.224;6.554;2024-01-15T06:45:48;13.73;;;4.37;;
72895;SDS011;61036;53.224;6.554;2024-01-15T06:48:14;13.87;;;3.63;;
72895;SDS011;61036;53.224;6.554;2024-01-15T06:50:44;18.53;;;3.67;;
72895;SDS011;61036;53.224;6.554;2024-01-15T06:53:10;15.77;;;3.70;;
72895;SDS011;61036;53.224;6.554;2024-01-15T06:55:36;12.97;;;3.70;;
72895;SDS011;61036;53.224;6.554;2024-01-15T06:58:03;12.50;;;3.37;;
72895;SDS011;61036;53.224;6.554;2024-01-15T07:00:28;16.50;;;3.10;;
72895;SDS011;61036;53.224;6.554;2024-01-15T07:02:54;12.30;;;2.53;;
72895;SDS011;61036;53.224;6.554;2024-01-15T07:05:20;11.80;;;2.20;;
72895;SDS011;61036;53.224;6.554;2024-01-15T07:07:46;13.10;;;2.33;;
72895;SDS011;61036;53.224;6.554;2024-01-15T07:10:12;12.13;;;2.10;;
72895;SDS011;61036;53.224;6.554;2024-01-15T07:12:38;11.80;;;2.30;;
72895;SDS011;61036;53.224;6.554;2024-01-15T07:15:04;5.50;;;1.40;;
72895;SDS011;61036;53.224;6.554;2024-01-15T07:17:32;10.23;;;1.97;;
72895;SDS011;61036;53.224;6.554;2024-01-15T07:19:57;7.23;;;1.97;;
72895;SDS011;61036;53.224;6.554;2024-01-15T07:22:23;7.37;;;1.77;;
72895;SDS011;61036;53.224;6.554;2024-01-15T07:24:48;9.00;;;1.77;;
72895;SDS011;61036;53.224;6.554;2024-01-15T07:27:14;8.30;;;1.97;;
72895;SDS011;61036;53.224;6.554;2024-01-15T07:29:39;10.17;;;1.80;;
72895;SDS011;61036;53.224;6.554;2024-01-15T07:32:04;10.37;;;1.90;;
72895;SDS011;61036;53.224;6.554;2024-01-15T07:34:30;10.13;;;1.83;;
72895;SDS011;61036;53.224;6.554;2024-01-15T07:36:56;12.80;;;2.77;;
72895;SDS011;61036;53.224;6.554;2024-01-15T07:39:22;12.93;;;2.37;;
72895;SDS011;61036;53.224;6.554;2024-01-15T07:41:49;11.37;;;2.00;;
72895;SDS011;61036;53.224;6.554;2024-01-15T07:44:16;8.87;;;1.97;;
72895;SDS011;61036;53.224;6.554;2024-01-15T07:46:45;9.53;;;1.93;;
72895;SDS011;61036;53.224;6.554;2024-01-15T07:49:14;8.47;;;1.87;;
72895;SDS011;61036;53.224;6.554;2024-01-15T07:51:39;11.20;;;1.97;;
72895;SDS011;61036;53.224;6.554;2024-01-15T07:54:06;9.60;;;2.40;;
72895;SDS011;61036;53.224;6.554;2024-01-15T07:56:32;9.13;;;2.20;;
72895;SDS011;61036;53.224;6.554;2024-01-15T07:58:58;7.33;;;1.50;;
72895;SDS011;61036;53.224;6.554;2024-01-15T08:01:24;9.83;;;2.33;;
72895;SDS011;61036;53.224;6.554;2024-01-15T08:03:49;13.80;;;2.37;;
72895;SDS011;61036;53.224;6.554;2024-01-15T08:06:15;8.77;;;2.00;;
72895;SDS011;61036;53.224;6.554;2024-01-15T08:08:40;12.17;;;2.00;;
72895;SDS011;61036;53.224;6.554;2024-01-15T08:11:06;7.20;;;2.83;;
72895;SDS011;61036;53.224;6.554;2024-01-15T08:13:31;13.27;;;2.67;;
72895;SDS011;61036;53.224;6.554;2024-01-15T08:15:57;11.17;;;2.60;;
72895;SDS011;61036;53.224;6.554;2024-01-15T08:18:22;8.40;;;2.17;;
72895;SDS011;61036;53.224;6.554;2024-01-15T08:20:47;13.30;;;2.20;;
72895;SDS011;61036;53.224;6.554;2024-01-15T08:23:13;11.10;;;2.20;;
72895;SDS011;61036;53.224;6.554;2024-01-15T08:25:38;12.30;;;2.50;;
72895;SDS011;61036;53.224;6.554;2024-01-15T08:28:04;8.97;;;2.33;;
72895;SDS011;61036;53.224;6.554;2024-01-15T08:30:30;8.07;;;1.90;;
72895;SDS011;61036;53.224;6.554;2024-01-15T08:32:56;8.83;;;2.07;;
72895;SDS011;61036;53.224;6.554;2024-01-15T08:35:22;9.40;;;1.97;;
72895;SDS011;61036;53.224;6.554;2024-01-15T08:37:50;8.73;;;2.00;;
72895;SDS011;61036;53.224;6.554;2024-01-15T08:40:19;8.47;;;2.10;;
72895;SDS011;61036;53.224;6.554;2024-01-15T08:42:44;11.97;;;2.33;;
72895;SDS011;61036;53.224;6.554;2024-01-15T08:45:11;6.57;;;1.83;;
72895;SDS011;61036;53.224;6.554;2024-01-15T08:47:36;9.00;;;1.87;;
72895;SDS011;61036;53.224;6.554;2024-01-15T08:50:02;9.60;;;2.30;;
72895;SDS011;61036;53.224;6.554;2024-01-15T08:52:28;8.90;;;1.73;;
72895;SDS011;61036;53.224;6.554;2024-01-15T08:54:55;7.37;;;1.77;;
72895;SDS011;61036;53.224;6.554;2024-01-15T08:57:21;7.57;;;1.93;;
72895;SDS011;61036;53.224;6.554;2024-01-15T08:59:47;11.03;;;1.77;;
72895;SDS011;61036;53.224;6.554;2024-01-15T09:02:13;10.13;;;1.60;;
72895;SDS011;61036;53.224;6.554;2024-01-15T09:04:38;7.83;;;1.87;;
72895;SDS011;61036;53.224;6.554;2024-01-15T09:07:04;7.03;;;1.50;;
72895;SDS011;61036;53.224;6.554;2024-01-15T09:09:29;8.70;;;2.00;;
72895;SDS011;61036;53.224;6.554;2024-01-15T09:11:55;9.07;;;4.40;;
72895;SDS011;61036;53.224;6.554;2024-01-15T09:14:20;6.80;;;2.00;;
72895;SDS011;61036;53.224;6.554;2024-01-15T09:16:47;5.57;;;1.97;;
72895;SDS011;61036;53.224;6.554;2024-01-15T09:19:13;5.63;;;1.30;;
72895;SDS011;61036;53.224;6.554;2024-01-15T09:21:38;9.47;;;2.10;;
72895;SDS011;61036;53.224;6.554;2024-01-15T09:24:05;8.10;;;1.90;;
72895;SDS011;61036;53.224;6.554;2024-01-15T09:26:30;5.37;;;1.70;;
72895;SDS011;61036;53.224;6.554;2024-01-15T09:28:57;9.10;;;1.63;;
72895;SDS011;61036;53.224;6.554;2024-01-15T09:31:22;5.43;;;1.40;;
72895;SDS011;61036;53.224;6.554;2024-01-15T09:33:49;8.13;;;1.77;;
72895;SDS011;61036;53.224;6.554;2024-01-15T09:36:16;6.40;;;1.80;;
72895;SDS011;61036;53.224;6.554;2024-01-15T09:38:42;4.33;;;1.57;;
72895;SDS011;61036;53.224;6.554;2024-01-15T09:41:07;9.80;;;2.23;;
72895;SDS011;61036;53.224;6.554;2024-01-15T09:43:33;5.87;;;1.57;;
72895;SDS011;61036;53.224;6.554;2024-01-15T09:45:58;7.27;;;2.33;;
72895;SDS011;61036;53.224;6.554;2024-01-15T09:48:24;6.97;;;1.77;;
72895;SDS011;61036;53.224;6.554;2024-01-15T09:50:50;8.23;;;1.60;;
72895;SDS011;61036;53.224;6.554;2024-01-15T09:53:17;9.50;;;2.47;;
72895;SDS011;61036;53.224;6.554;2024-01-15T09:55:42;8.67;;;2.77;;
72895;SDS011;61036;53.224;6.554;2024-01-15T09:58:08;7.43;;;2.40;;
72895;SDS011;61036;53.224;6.554;2024-01-15T10:00:35;10.77;;;2.67;;
72895;SDS011;61036;53.224;6.554;2024-01-15T10:03:04;11.60;;;2.70;;
72895;SDS011;61036;53.224;6.554;2024-01-15T10:05:30;11.47;;;2.77;;
72895;SDS011;61036;53.224;6.554;2024-01-15T10:07:56;10.17;;;2.40;;
72895;SDS011;61036;53.224;6.554;2024-01-15T10:10:21;10.17;;;2.33;;
72895;SDS011;61036;53.224;6.554;2024-01-15T10:12:47;7.07;;;1.90;;
72895;SDS011;61036;53.224;6.554;2024-01-15T10:15:14;9.43;;;1.83;;
72895;SDS011;61036;53.224;6.554;2024-01-15T10:17:40;9.33;;;2.03;;
72895;SDS011;61036;53.224;6.554;2024-01-15T10:20:09;11.83;;;2.00;;
72895;SDS011;61036;53.224;6.554;2024-01-15T10:22:38;8.43;;;1.67;;
72895;SDS011;61036;53.224;6.554;2024-01-15T10:25:05;8.43;;;1.60;;
72895;SDS011;61036;53.224;6.554;2024-01-15T10:27:31;11.07;;;1.90;;
72895;SDS011;61036;53.224;6.554;2024-01-15T10:29:59;6.90;;;1.90;;
72895;SDS011;61036;53.224;6.554;2024-01-15T10:32:28;6.03;;;1.57;;
72895;SDS011;61036;53.224;6.554;2024-01-15T10:34:54;7.97;;;1.77;;
72895;SDS011;61036;53.224;6.554;2024-01-15T10:37:20;7.10;;;1.70;;
72895;SDS011;61036;53.224;6.554;2024-01-15T10:39:48;13.60;;;2.17;;
72895;SDS011;61036;53.224;6.554;2024-01-15T10:42:15;9.77;;;2.17;;
72895;SDS011;61036;53.224;6.554;2024-01-15T10:44:41;7.33;;;1.83;;
72895;SDS011;61036;53.224;6.554;2024-01-15T10:47:08;5.83;;;1.70;;
72895;SDS011;61036;53.224;6.554;2024-01-15T10:49:34;8.40;;;1.83;;
72895;SDS011;61036;53.224;6.554;2024-01-15T10:52:03;5.97;;;1.30;;
72895;SDS011;61036;53.224;6.554;2024-01-15T10:54:29;6.13;;;1.53;;
72895;SDS011;61036;53.224;6.554;2024-01-15T10:56:58;5.20;;;1.23;;
72895;SDS011;61036;53.224;6.554;2024-01-15T10:59:23;6.00;;;1.50;;
72895;SDS011;61036;53.224;6.554;2024-01-15T11:01:52;3.03;;;0.90;;
72895;SDS011;61036;53.224;6.554;2024-01-15T11:04:19;2.03;;;0.80;;
72895;SDS011;61036;53.224;6.554;2024-01-15T11:06:50;3.63;;;0.97;;
72895;SDS011;61036;53.224;6.554;2024-01-15T11:09:18;3.47;;;1.10;;
72895;SDS011;61036;53.224;6.554;2024-01-15T11:11:44;5.83;;;1.13;;
72895;SDS011;61036;53.224;6.554;2024-01-15T11:14:33;5.40;;;1.17;;
72895;SDS011;61036;53.224;6.554;2024-01-15T11:17:03;5.47;;;0.90;;
72895;SDS011;61036;53.224;6.554;2024-01-15T11:19:37;3.70;;;1.23;;
72895;SDS011;61036;53.224;6.554;2024-01-15T11:22:06;5.07;;;1.33;;
72895;SDS011;61036;53.224;6.554;2024-01-15T11:24:38;5.93;;;1.20;;
72895;SDS011;61036;53.224;6.554;2024-01-15T11:27:05;3.37;;;1.23;;
72895;SDS011;61036;53.224;6.554;2024-01-15T11:29:35;5.70;;;1.40;;
72895;SDS011;61036;53.224;6.554;2024-01-15T11:32:08;2.47;;;0.70;;
72895;SDS011;61036;53.224;6.554;2024-01-15T11:37:29;4.87;;;0.90;;
72895;SDS011;61036;53.224;6.554;2024-01-15T11:40:17;3.53;;;1.10;;
72895;SDS011;61036;53.224;6.554;2024-01-15T11:42:43;5.20;;;1.20;;
72895;SDS011;61036;53.224;6.554;2024-01-15T11:45:10;6.50;;;1.20;;
72895;SDS011;61036;53.224;6.554;2024-01-15T11:50:22;3.73;;;0.90;;
72895;SDS011;61036;53.224;6.554;2024-01-15T11:52:59;6.57;;;1.27;;
72895;SDS011;61036;53.224;6.554;2024-01-15T11:55:35;4.73;;;1.07;;
72895;SDS011;61036;53.224;6.554;2024-01-15T11:58:10;4.03;;;0.90;;
72895;SDS011;61036;53.224;6.554;2024-01-15T12:00:39;4.90;;;1.10;;
72895;SDS011;61036;53.224;6.554;2024-01-15T12:03:08;6.63;;;1.53;;
72895;SDS011;61036;53.224;6.554;2024-01-15T12:05:36;5.07;;;1.70;;
72895;SDS011;61036;53.224;6.554;2024-01-15T12:08:02;5.90;;;1.20;;
72895;SDS011;61036;53.224;6.554;2024-01-15T12:10:28;5.37;;;1.70;;
72895;SDS011;61036;53.224;6.554;2024-01-15T12:13:02;6.27;;;0.93;;
72895;SDS011;61036;53.224;6.554;2024-01-15T12:15:29;4.40;;;1.10;;
72895;SDS011;61036;53.224;6.554;2024-01-15T12:17:56;6.37;;;1.33;;
72895;SDS011;61036;53.224;6.554;2024-01-15T12:20:25;6.53;;;1.37;;
72895;SDS011;61036;53.224;6.554;2024-01-15T12:22:52;7.03;;;1.63;;
72895;SDS011;61036;53.224;6.554;2024-01-15T12:25:18;5.40;;;1.40;;
72895;SDS011;61036;53.224;6.554;2024-01-15T12:27:44;10.33;;;1.50;;
72895;SDS011;61036;53.224;6.554;2024-01-15T12:30:11;6.43;;;1.50;;
72895;SDS011;61036;53.224;6.554;2024-01-15T12:32:38;9.00;;;1.30;;
72895;SDS011;61036;53.224;6.554;2024-01-15T12:35:03;5.83;;;1.43;;
72895;SDS011;61036;53.224;6.554;2024-01-15T12:37:29;7.17;;;1.27;;
72895;SDS011;61036;53.224;6.554;2024-01-15T12:39:55;6.70;;;1.43;;
72895;SDS011;61036;53.224;6.554;2024-01-15T12:42:21;6.60;;;1.50;;
72895;SDS011;61036;53.224;6.554;2024-01-15T12:44:47;8.73;;;1.83;;
72895;SDS011;61036;53.224;6.554;2024-01-15T12:47:12;9.13;;;2.13;;
72895;SDS011;61036;53.224;6.554;2024-01-15T12:49:39;6.87;;;1.83;;
72895;SDS011;61036;53.224;6.554;2024-01-15T12:52:07;4.87;;;1.30;;
72895;SDS011;61036;53.224;6.554;2024-01-15T12:54:34;8.10;;;1.77;;
72895;SDS011;61036;53.224;6.554;2024-01-15T12:57:00;9.20;;;1.80;;
72895;SDS011;61036;53.224;6.554;2024-01-15T12:59:26;13.27;;;1.93;;
72895;SDS011;61036;53.224;6.554;2024-01-15T13:01:51;10.57;;;2.03;;
72895;SDS011;61036;53.224;6.554;2024-01-15T13:04:23;8.87;;;1.87;;
72895;SDS011;61036;53.224;6.554;2024-01-15T13:06:50;6.80;;;1.90;;
72895;SDS011;61036;53.224;6.554;2024-01-15T13:09:16;9.33;;;1.83;;
72895;SDS011;61036;53.224;6.554;2024-01-15T13:11:45;9.43;;;2.43;;
72895;SDS011;61036;53.224;6.554;2024-01-15T13:14:11;9.83;;;2.17;;
72895;SDS011;61036;53.224;6.554;2024-01-15T13:16:39;11.70;;;2.63;;
72895;SDS011;61036;53.224;6.554;2024-01-15T13:19:07;12.40;;;2.23;;
72895;SDS011;61036;53.224;6.554;2024-01-15T13:21:33;13.20;;;2.40;;
72895;SDS011;61036;53.224;6.554;2024-01-15T13:23:59;12.10;;;2.10;;
72895;SDS011;61036;53.224;6.554;2024-01-15T13:26:24;12.93;;;2.47;;
72895;SDS011;61036;53.224;6.554;2024-01-15T13:28:50;11.17;;;2.10;;
72895;SDS011;61036;53.224;6.554;2024-01-15T13:31:15;11.67;;;2.33;;
72895;SDS011;61036;53.224;6.554;2024-01-15T13:33:41;10.93;;;2.23;;
72895;SDS011;61036;53.224;6.554;2024-01-15T13:36:06;9.03;;;2.23;;
72895;SDS011;61036;53.224;6.554;2024-01-15T13:38:36;6.77;;;1.77;;
72895;SDS011;61036;53.224;6.554;2024-01-15T13:41:06;8.27;;;1.80;;
72895;SDS011;61036;53.224;6.554;2024-01-15T13:43:31;9.20;;;2.03;;
72895;SDS011;61036;53.224;6.554;2024-01-15T13:45:58;9.93;;;2.30;;
72895;SDS011;61036;53.224;6.554;2024-01-15T13:48:24;7.50;;;1.60;;
72895;SDS011;61036;53.224;6.554;2024-01-15T13:50:51;6.47;;;1.43;;
72895;SDS011;61036;53.224;6.554;2024-01-15T13:53:17;9.73;;;1.73;;
72895;SDS011;61036;53.224;6.554;2024-01-15T13:55:44;9.17;;;1.87;;
72895;SDS011;61036;53.224;6.554;2024-01-15T13:58:10;7.37;;;1.63;;
72895;SDS011;61036;53.224;6.554;2024-01-15T14:00:36;7.47;;;1.80;;
72895;SDS011;61036;53.224;6.554;2024-01-15T14:03:01;8.63;;;2.00;;
72895;SDS011;61036;53.224;6.554;2024-01-15T14:05:27;10.20;;;2.03;;
72895;SDS011;61036;53.224;6.554;2024-01-15T14:07:53;3.93;;;1.13;;
72895;SDS011;61036;53.224;6.554;2024-01-15T14:10:18;7.30;;;1.77;;
72895;SDS011;61036;53.224;6.554;2024-01-15T14:12:44;7.13;;;1.63;;
72895;SDS011;61036;53.224;6.554;2024-01-15T14:15:09;8.77;;;2.00;;
72895;SDS011;61036;53.224;6.554;2024-01-15T14:17:35;7.97;;;1.70;;
72895;SDS011;61036;53.224;6.554;2024-01-15T14:20:01;5.83;;;1.60;;
72895;SDS011;61036;53.224;6.554;2024-01-15T14:22:26;11.70;;;1.87;;
72895;SDS011;61036;53.224;6.554;2024-01-15T14:24:52;5.63;;;1.87;;
72895;SDS011;61036;53.224;6.554;2024-01-15T14:27:17;7.03;;;1.50;;
72895;SDS011;61036;53.224;6.554;2024-01-15T14:29:43;8.27;;;1.30;;
72895;SDS011;61036;53.224;6.554;2024-01-15T14:32:09;7.67;;;1.40;;
72895;SDS011;61036;53.224;6.554;2024-01-15T14:34:34;6.37;;;1.80;;
72895;SDS011;61036;53.224;6.554;2024-01-15T14:37:02;7.27;;;1.77;;
72895;SDS011;61036;53.224;6.554;2024-01-15T14:39:27;5.57;;;1.30;;
72895;SDS011;61036;53.224;6.554;2024-01-15T14:41:53;7.10;;;1.47;;
72895;SDS011;61036;53.224;6.554;2024-01-15T14:44:18;3.53;;;1.20;;
72895;SDS011;61036;53.224;6.554;2024-01-15T14:46:44;6.23;;;1.63;;
72895;SDS011;61036;53.224;6.554;2024-01-15T14:49:13;6.83;;;1.70;;
72895;SDS011;61036;53.224;6.554;2024-01-15T14:51:40;5.83;;;1.70;;
72895;SDS011;61036;53.224;6.554;2024-01-15T14:54:05;8.80;;;1.70;;
72895;SDS011;61036;53.224;6.554;2024-01-15T14:56:31;8.00;;;1.77;;
72895;SDS011;61036;53.224;6.554;2024-01-15T14:58:56;7.60;;;2.20;;
72895;SDS011;61036;53.224;6.554;2024-01-15T15:01:22;6.63;;;1.70;;
72895;SDS011;61036;53.224;6.554;2024-01-15T15:03:48;7.33;;;1.83;;
72895;SDS011;61036;53.224;6.554;2024-01-15T15:06:13;10.43;;;2.10;;
72895;SDS011;61036;53.224;6.554;2024-01-15T15:08:39;12.37;;;2.30;;